Time;durP1;ratioP1;P1;durP2;ratioP2;P2;SDS_P1;SDS_P2;PMS_P1;PMS_P2;Temp;Humidity;BMP_temperature;BMP_pressure;BME280_temperature;BME280_humidity;BME280_pressure;Samples;Min_cycle;Max_cycle;Signal;HPM_P1;HPM_P2
2022/08/04 00:01:02;;;;;;;10.40;5.47;;;19.60;99.90;;;;;;5030868;28;20164;-65
2022/08/04 00:03:39;;;;;;;12.05;5.30;;;19.50;99.90;;;;;;5049096;28;20037;-64
2022/08/04 00:06:24;;;;;;;9.68;4.72;;;19.50;99.90;;;;;;5038949;28;20040;-65
2022/08/04 00:08:59;;;;;;;9.05;5.55;;;19.50;99.90;;;;;;5051477;28;20082;-64
2022/08/04 00:11:28;;;;;;;10.85;5.55;;;19.50;99.90;;;;;;5053414;28;20059;-65
2022/08/04 00:14:04;;;;;;;11.93;6.40;;;19.50;99.90;;;;;;5051557;28;20033;-64
2022/08/04 00:16:36;;;;;;;9.40;5.95;;;19.60;99.90;;;;;;5048232;28;20048;-65
2022/08/04 00:19:29;;;;;;;11.48;5.68;;;19.60;99.90;;;;;;5061714;28;20040;-64
2022/08/04 00:22:01;;;;;;;13.52;6.38;;;19.60;99.90;;;;;;5046252;28;20380;-64
2022/08/04 00:24:29;;;;;;;11.60;5.78;;;19.60;99.90;;;;;;5046324;28;20499;-64
2022/08/04 00:26:55;;;;;;;10.88;5.72;;;19.60;99.90;;;;;;5053168;28;20066;-64
2022/08/04 00:29:22;;;;;;;10.43;6.00;;;19.50;99.90;;;;;;5052089;28;20037;-64
2022/08/04 00:31:49;;;;;;;9.50;5.82;;;19.40;99.90;;;;;;5042850;28;20044;-65
2022/08/04 00:34:15;;;;;;;10.68;6.00;;;19.50;99.90;;;;;;5051466;28;20064;-64
2022/08/04 00:36:44;;;;;;;10.48;6.03;;;19.50;99.90;;;;;;5053157;28;20045;-64
2022/08/04 00:39:12;;;;;;;14.70;5.90;;;19.50;99.90;;;;;;5044482;28;20033;-64
2022/08/04 00:41:40;;;;;;;13.63;6.13;;;19.50;99.90;;;;;;5052514;28;20040;-64
2022/08/04 00:44:12;;;;;;;10.23;5.90;;;19.40;99.90;;;;;;5053306;28;20127;-65
2022/08/04 00:47:03;;;;;;;11.00;6.10;;;19.30;99.90;;;;;;5052779;28;20041;-64
2022/08/04 00:49:50;;;;;;;11.25;5.80;;;19.40;99.90;;;;;;5044791;28;20043;-64
2022/08/04 00:53:05;;;;;;;10.85;6.22;;;19.30;99.90;;;;;;5052611;28;20044;-64
2022/08/04 00:55:52;;;;;;;10.23;6.00;;;19.40;99.90;;;;;;5024587;28;20055;-64
2022/08/04 00:58:26;;;;;;;13.00;6.38;;;19.40;99.90;;;;;;5050258;28;20037;-64
2022/08/04 01:01:02;;;;;;;13.85;6.13;;;19.40;99.90;;;;;;5051738;28;20052;-64
2022/08/04 01:03:53;;;;;;;13.15;6.78;;;19.50;99.90;;;;;;5052521;28;20064;-64
2022/08/04 01:06:55;;;;;;;13.60;6.90;;;19.50;99.90;;;;;;5037450;28;20040;-64
2022/08/04 01:09:27;;;;;;;11.95;7.57;;;19.60;99.90;;;;;;5046709;28;20071;-64
2022/08/04 01:12:11;;;;;;;13.65;8.00;;;19.60;99.90;;;;;;5049024;28;20033;-65
2022/08/04 01:14:55;;;;;;;16.15;7.90;;;19.70;99.90;;;;;;5052235;28;20029;-65
2022/08/04 01:17:30;;;;;;;19.33;7.93;;;19.80;99.90;;;;;;5052256;28;20099;-65
2022/08/04 01:20:01;;;;;;;17.42;8.43;;;19.80;99.90;;;;;;5046307;28;20530;-64
2022/08/04 01:22:32;;;;;;;14.57;8.95;;;19.80;99.90;;;;;;5048222;28;20036;-64
2022/08/04 01:25:35;;;;;;;11.20;7.88;;;19.80;99.90;;;;;;5052215;28;20041;-65
2022/08/04 01:28:23;;;;;;;12.90;8.25;;;19.80;99.90;;;;;;5048568;28;20039;-65
2022/08/04 01:30:51;;;;;;;16.30;8.73;;;19.80;99.90;;;;;;5049158;28;20407;-65
2022/08/04 01:33:18;;;;;;;15.70;8.40;;;20.00;99.90;;;;;;5052228;28;20394;-64
2022/08/04 01:35:50;;;;;;;16.05;8.60;;;20.00;99.90;;;;;;5048051;28;20464;-65
2022/08/04 01:38:32;;;;;;;15.43;8.20;;;20.00;99.90;;;;;;5045303;28;20476;-65
2022/08/04 01:41:09;;;;;;;16.92;8.70;;;20.10;99.90;;;;;;5051156;28;20415;-64
2022/08/04 01:43:40;;;;;;;12.68;8.00;;;20.10;99.90;;;;;;5052269;28;20041;-64
2022/08/04 01:46:08;;;;;;;11.10;8.30;;;20.00;99.90;;;;;;5049028;28;20044;-64
2022/08/04 01:48:38;;;;;;;16.63;8.93;;;20.00;99.90;;;;;;5063286;28;20037;-64
2022/08/04 01:51:06;;;;;;;11.65;8.15;;;20.00;99.90;;;;;;5051507;28;20068;-64
2022/08/04 01:53:34;;;;;;;15.45;8.93;;;19.90;99.90;;;;;;5042832;28;20591;-65
2022/08/04 01:56:05;;;;;;;13.35;8.80;;;19.90;99.90;;;;;;5051224;28;20464;-64
2022/08/04 01:58:32;;;;;;;17.73;8.73;;;20.00;99.90;;;;;;5050778;28;20492;-64
2022/08/04 02:01:18;;;;;;;21.80;9.05;;;19.90;99.90;;;;;;5047238;28;20049;-64
2022/08/04 02:03:45;;;;;;;16.67;8.85;;;19.90;99.90;;;;;;5044235;28;20049;-64
2022/08/04 02:06:16;;;;;;;14.68;8.32;;;19.90;99.90;;;;;;5050730;28;20064;-65
2022/08/04 02:08:41;;;;;;;;;;;19.80;99.90;;;;;;5052203;28;20086;-64
2022/08/04 02:11:21;;;;;;;15.38;8.73;;;19.80;99.90;;;;;;5042680;28;19999;-64
2022/08/04 02:13:56;;;;;;;15.90;8.80;;;19.80;99.90;;;;;;5049798;28;20055;-65
2022/08/04 02:16:27;;;;;;;18.75;8.80;;;19.90;99.90;;;;;;5051234;28;20492;-64
2022/08/04 02:18:56;;;;;;;15.07;8.75;;;19.80;99.90;;;;;;5040533;28;20112;-65
2022/08/04 02:21:24;;;;;;;16.05;8.68;;;19.90;99.90;;;;;;5049736;28;20049;-64
2022/08/04 02:23:56;;;;;;;14.55;8.52;;;19.80;99.90;;;;;;5051266;28;20066;-64
2022/08/04 02:26:25;;;;;;;14.43;8.20;;;19.80;99.90;;;;;;5051267;28;20112;-64
2022/08/04 02:29:07;;;;;;;15.63;8.65;;;19.80;99.90;;;;;;5044079;28;20040;-65
2022/08/04 02:31:55;;;;;;;12.93;8.98;;;19.80;99.90;;;;;;5050658;28;20090;-65
2022/08/04 02:34:27;;;;;;;14.57;8.35;;;19.80;99.90;;;;;;5047412;28;20596;-64
2022/08/04 02:36:54;;;;;;;13.43;8.40;;;19.70;99.90;;;;;;5044346;28;20487;-65
2022/08/04 02:39:21;;;;;;;12.45;8.57;;;19.50;99.90;;;;;;5050619;28;20491;-64
2022/08/04 02:41:48;;;;;;;12.65;9.68;;;19.50;99.90;;;;;;5049827;28;20060;-64
2022/08/04 02:44:23;;;;;;;12.63;8.60;;;19.40;99.90;;;;;;5044702;28;20048;-64
2022/08/04 02:46:53;;;;;;;21.73;10.07;;;19.40;99.90;;;;;;5048200;28;20044;-64
2022/08/04 02:49:20;;;;;;;15.30;8.68;;;19.40;99.90;;;;;;5050305;28;20033;-64
2022/08/04 02:51:57;;;;;;;18.23;8.65;;;19.30;99.90;;;;;;5045008;28;20402;-64
2022/08/04 02:54:27;;;;;;;19.92;8.73;;;19.30;99.90;;;;;;5039381;28;20033;-64
2022/08/04 02:56:56;;;;;;;14.63;8.83;;;19.20;99.90;;;;;;5050836;28;20094;-64
2022/08/04 02:59:25;;;;;;;13.60;8.50;;;19.20;99.90;;;;;;5050971;28;20072;-65
2022/08/04 03:01:54;;;;;;;15.43;8.32;;;19.10;99.90;;;;;;5042567;28;20167;-64
2022/08/04 03:04:56;;;;;;;16.42;8.65;;;19.10;99.90;;;;;;5044517;28;20151;-65
2022/08/04 03:07:44;;;;;;;;;;;19.10;99.90;;;;;;5051103;28;20041;-64
2022/08/04 03:10:52;;;;;;;12.95;7.57;;;19.00;99.90;;;;;;5043373;28;20406;-65
2022/08/04 03:13:35;;;;;;;9.98;7.47;;;18.90;99.90;;;;;;5050132;28;20434;-64
2022/08/04 03:16:23;;;;;;;12.93;8.02;;;18.90;99.90;;;;;;5050801;28;20086;-64
2022/08/04 03:19:14;;;;;;;14.25;8.52;;;18.90;99.90;;;;;;5038519;28;20071;-64
2022/08/04 03:22:07;;;;;;;15.27;8.73;;;18.80;99.90;;;;;;5046857;28;20094;-64
2022/08/04 03:25:24;;;;;;;14.25;8.30;;;18.80;99.90;;;;;;5045752;28;20053;-64
2022/08/04 03:28:01;;;;;;;11.93;8.07;;;18.70;99.90;;;;;;5028982;28;20061;-64
2022/08/04 03:30:56;;;;;;;17.27;8.30;;;18.60;99.90;;;;;;5050039;28;20041;-64
2022/08/04 03:34:09;;;;;;;17.63;7.78;;;18.60;99.90;;;;;;5046685;28;20048;-64
2022/08/04 03:37:03;;;;;;;14.98;8.82;;;18.60;99.90;;;;;;5038817;28;20060;-64
2022/08/04 03:39:53;;;;;;;18.38;8.75;;;18.70;99.90;;;;;;5049968;28;20033;-65
2022/08/04 03:42:37;;;;;;;14.43;8.05;;;18.60;99.90;;;;;;5040967;28;20034;-65
2022/08/04 03:45:24;;;;;;;14.30;8.07;;;18.50;99.90;;;;;;5043564;28;20044;-64
2022/08/04 03:48:14;;;;;;;14.93;7.82;;;18.60;99.90;;;;;;5050199;28;20048;-64
2022/08/04 03:54:05;;;;;;;11.73;7.60;;;18.60;99.90;;;;;;5037401;28;20042;-64
2022/08/04 03:56:53;;;;;;;13.77;7.60;;;18.60;99.90;;;;;;5040676;28;20049;-64
2022/08/04 03:59:56;;;;;;;13.52;6.78;;;18.50;99.90;;;;;;5043588;28;20487;-64
2022/08/04 04:02:43;;;;;;;16.58;7.60;;;18.50;99.90;;;;;;5043778;28;20553;-64
2022/08/04 04:05:23;;;;;;;14.48;7.03;;;18.50;99.90;;;;;;5050131;28;20045;-64
2022/08/04 04:07:54;;;;;;;12.10;7.27;;;18.50;99.90;;;;;;5042352;28;20499;-64
2022/08/04 04:10:39;;;;;;;22.88;8.40;;;18.50;99.90;;;;;;5048275;28;20271;-64
2022/08/04 04:13:47;;;;;;;14.60;7.43;;;18.60;99.90;;;;;;5041904;28;20399;-64
2022/08/04 04:16:27;;;;;;;15.38;7.60;;;18.60;99.90;;;;;;5033521;28;20033;-65
2022/08/04 04:19:14;;;;;;;16.92;7.47;;;18.50;99.90;;;;;;5048003;28;20037;-65
2022/08/04 04:21:57;;;;;;;12.07;7.38;;;18.50;99.90;;;;;;5049423;28;20055;-64
2022/08/04 04:24:44;;;;;;;10.55;7.18;;;18.40;99.90;;;;;;5041921;28;20547;-65
2022/08/04 04:27:42;;;;;;;15.40;7.70;;;18.50;99.90;;;;;;5049580;28;20073;-65
2022/08/04 04:30:52;;;;;;;12.38;7.40;;;18.50;99.90;;;;;;5004964;28;20084;-64
2022/08/04 04:33:48;;;;;;;13.00;7.32;;;18.50;99.90;;;;;;4991663;28;20488;-64
2022/08/04 04:36:28;;;;;;;14.13;6.68;;;18.50;99.90;;;;;;5040543;28;20590;-64
2022/08/04 04:39:17;;;;;;;15.07;7.53;;;18.60;99.90;;;;;;5051548;28;20045;-64
2022/08/04 04:42:20;;;;;;;14.75;7.07;;;18.70;99.90;;;;;;5053282;28;20432;-65
2022/08/04 04:44:58;;;;;;;10.75;6.30;;;18.80;99.90;;;;;;5045475;28;20103;-64
2022/08/04 04:47:41;;;;;;;12.38;7.20;;;18.90;99.90;;;;;;5049840;28;20487;-64
2022/08/04 04:50:25;;;;;;;11.07;6.47;;;19.00;99.90;;;;;;5047109;28;20088;-64
2022/08/04 04:53:18;;;;;;;17.10;6.60;;;19.00;99.90;;;;;;5052256;28;20041;-65
2022/08/04 04:55:52;;;;;;;12.70;6.82;;;19.00;99.90;;;;;;5050210;28;20040;-64
2022/08/04 04:58:21;;;;;;;13.85;7.03;;;19.00;99.90;;;;;;5037878;28;20045;-64
2022/08/04 05:00:52;;;;;;;12.73;7.15;;;19.00;99.90;;;;;;5052348;28;20045;-64
2022/08/04 05:03:35;;;;;;;12.32;7.30;;;19.10;99.90;;;;;;5052604;28;20041;-64
2022/08/04 05:06:28;;;;;;;11.68;6.65;;;19.10;99.90;;;;;;5042822;28;20503;-64
2022/08/04 05:09:25;;;;;;;12.02;6.85;;;19.20;99.90;;;;;;5051117;28;20037;-65
2022/08/04 05:12:09;;;;;;;13.07;7.18;;;19.30;99.90;;;;;;5050809;28;20045;-65
2022/08/04 05:14:46;;;;;;;13.05;7.00;;;19.40;99.90;;;;;;5040346;28;20711;-65
2022/08/04 05:17:22;;;;;;;14.95;7.15;;;19.50;99.90;;;;;;5045497;28;20029;-67
2022/08/04 05:20:09;;;;;;;12.80;6.78;;;19.50;99.90;;;;;;5061581;22;20044;-67
2022/08/04 05:22:41;;;;;;;16.70;6.45;;;19.70;99.90;;;;;;5046849;28;20521;-67
2022/08/04 05:25:30;;;;;;;11.75;6.47;;;19.80;99.90;;;;;;5054658;28;20029;-65
2022/08/04 05:28:08;;;;;;;14.82;6.38;;;20.00;99.90;;;;;;5071551;28;20537;-64
2022/08/04 05:30:47;;;;;;;14.35;6.18;;;20.10;99.90;;;;;;5064398;28;20574;-65
2022/08/04 05:33:15;;;;;;;13.13;6.40;;;20.30;99.90;;;;;;5055486;28;20028;-64
2022/08/04 05:35:48;;;;;;;12.43;5.75;;;20.40;99.90;;;;;;5055221;28;20040;-65
2022/08/04 05:38:18;;;;;;;16.45;6.07;;;20.40;99.90;;;;;;5055375;28;20041;-64
2022/08/04 05:40:45;;;;;;;10.68;5.25;;;20.50;99.90;;;;;;5067432;28;20162;-65
2022/08/04 05:43:12;;;;;;;11.85;5.95;;;20.50;99.90;;;;;;5072082;28;20040;-65
2022/08/04 05:45:39;;;;;;;11.50;6.65;;;20.60;99.90;;;;;;5071911;28;20482;-64
2022/08/04 05:48:07;;;;;;;12.55;6.80;;;20.60;99.90;;;;;;5052204;28;20040;-64
2022/08/04 05:50:34;;;;;;;13.18;6.88;;;20.60;99.90;;;;;;5067652;28;20063;-65
2022/08/04 05:53:00;;;;;;;12.77;7.28;;;20.60;99.90;;;;;;5048582;28;20086;-65
2022/08/04 05:55:28;;;;;;;12.50;8.27;;;20.60;99.90;;;;;;5050407;28;20053;-65
2022/08/04 05:57:57;;;;;;;14.93;8.15;;;20.60;99.90;;;;;;5067065;28;20032;-64
2022/08/04 06:00:25;;;;;;;14.88;7.72;;;20.60;99.90;;;;;;5071867;28;20047;-64
2022/08/04 06:02:52;;;;;;;18.95;8.45;;;20.60;99.90;;;;;;5058798;28;20045;-64
2022/08/04 06:05:18;;;;;;;18.80;8.27;;;20.60;99.90;;;;;;5043419;28;20120;-68
2022/08/04 06:07:45;;;;;;;17.58;8.13;;;20.60;99.90;;;;;;5060648;28;20502;-67
2022/08/04 06:10:11;;;;;;;17.92;7.70;;;20.70;99.90;;;;;;5070011;28;20461;-67
2022/08/04 06:12:45;;;;;;;14.55;8.35;;;20.70;99.90;;;;;;5045008;28;20100;-68
2022/08/04 06:15:15;;;;;;;16.95;8.07;;;20.70;99.90;;;;;;5056592;28;20427;-68
2022/08/04 06:17:48;;;;;;;15.10;8.85;;;20.70;99.90;;;;;;5059624;28;20037;-68
2022/08/04 06:20:15;;;;;;;15.95;8.57;;;20.70;99.90;;;;;;5044475;28;20197;-66
2022/08/04 06:22:44;;;;;;;14.32;8.30;;;20.80;99.90;;;;;;5053513;28;20656;-66
2022/08/04 06:25:16;;;;;;;13.07;8.48;;;20.90;99.90;;;;;;5071098;28;20040;-66
2022/08/04 06:27:42;;;;;;;13.52;8.55;;;21.00;99.90;;;;;;5065902;28;20048;-66
2022/08/04 06:30:13;;;;;;;15.00;8.82;;;21.10;99.90;;;;;;5051474;28;20033;-66
2022/08/04 06:32:55;;;;;;;15.85;9.27;;;21.30;99.90;;;;;;5063522;28;20051;-66
2022/08/04 06:35:25;;;;;;;12.98;8.60;;;21.40;99.90;;;;;;5071080;28;20430;-66
2022/08/04 06:37:53;;;;;;;19.08;9.75;;;21.40;99.90;;;;;;5062953;28;20063;-66
2022/08/04 06:40:21;;;;;;;17.90;9.25;;;21.60;99.90;;;;;;5056785;28;20043;-65
2022/08/04 06:42:48;;;;;;;16.73;9.00;;;21.60;99.90;;;;;;5070535;28;20043;-65
2022/08/04 06:45:15;;;;;;;11.80;8.77;;;21.70;99.90;;;;;;5058060;28;20061;-65
2022/08/04 06:47:42;;;;;;;15.23;9.02;;;21.80;99.90;;;;;;5064837;28;20079;-65
2022/08/04 06:50:09;;;;;;;14.13;8.18;;;21.90;99.90;;;;;;5070909;28;20056;-65
2022/08/04 06:52:36;;;;;;;20.15;8.32;;;22.00;99.90;;;;;;5070553;28;20115;-65
2022/08/04 06:55:04;;;;;;;20.60;8.73;;;22.10;99.90;;;;;;5037895;28;20032;-65
2022/08/04 06:57:30;;;;;;;13.93;8.45;;;22.20;99.90;;;;;;5065383;28;20029;-65
2022/08/04 07:00:09;;;;;;;17.23;8.73;;;22.30;99.90;;;;;;5070263;28;20064;-65
2022/08/04 07:02:46;;;;;;;16.63;8.32;;;22.50;99.90;;;;;;5044801;28;20041;-65
2022/08/04 07:05:13;;;;;;;13.20;8.52;;;22.50;99.90;;;;;;5061525;28;20033;-65
2022/08/04 07:07:40;;;;;;;15.85;8.73;;;22.60;99.90;;;;;;5070731;28;20083;-64
2022/08/04 07:10:07;;;;;;;14.85;8.07;;;22.70;99.90;;;;;;5055901;28;20041;-65
2022/08/04 07:12:33;;;;;;;20.27;8.60;;;22.70;99.90;;;;;;5055564;28;20033;-65
2022/08/04 07:14:59;;;;;;;17.50;8.57;;;22.80;99.90;;;;;;5070472;28;20125;-65
2022/08/04 07:17:27;;;;;;;14.57;8.18;;;22.80;99.90;;;;;;5060936;28;20037;-65
2022/08/04 07:19:53;;;;;;;17.10;8.60;;;22.90;99.90;;;;;;5046215;28;20029;-65
2022/08/04 07:22:19;;;;;;;21.55;8.45;;;22.90;99.90;;;;;;5043828;28;20029;-65
2022/08/04 07:24:45;;;;;;;15.27;8.23;;;23.00;99.90;;;;;;5034765;28;20105;-65
2022/08/04 07:27:11;;;;;;;16.45;8.70;;;23.10;99.90;;;;;;5070230;28;20068;-65
2022/08/04 07:29:38;;;;;;;16.70;8.32;;;23.10;99.90;;;;;;5070321;28;20387;-65
2022/08/04 07:32:05;;;;;;;17.65;8.93;;;23.30;99.90;;;;;;5051874;28;20044;-65
2022/08/04 07:34:31;;;;;;;16.42;8.43;;;23.30;99.90;;;;;;5056844;28;20718;-65
2022/08/04 07:36:59;;;;;;;17.63;8.70;;;23.40;99.90;;;;;;5050930;28;20052;-65
2022/08/04 07:39:27;;;;;;;18.95;8.70;;;23.50;99.90;;;;;;5069405;28;20041;-65
2022/08/04 07:41:54;;;;;;;18.85;9.15;;;23.60;99.90;;;;;;5070048;28;20036;-65
2022/08/04 07:44:20;;;;;;;19.33;7.75;;;23.80;99.90;;;;;;5052283;28;20040;-65
2022/08/04 07:46:46;;;;;;;15.38;7.07;;;23.80;99.90;;;;;;5066835;28;20090;-65
2022/08/04 07:49:12;;;;;;;14.32;6.55;;;24.00;99.90;;;;;;5070241;28;20049;-68
2022/08/04 07:51:39;;;;;;;13.85;5.35;;;24.10;99.90;;;;;;5057340;28;20033;-66
2022/08/04 07:54:08;;;;;;;14.48;6.00;;;24.30;99.90;;;;;;5051334;28;20032;-66
2022/08/04 07:56:39;;;;;;;10.40;5.07;;;24.50;99.90;;;;;;5070122;28;20067;-63
2022/08/04 07:59:05;;;;;;;;;;;24.60;99.90;;;;;;5070441;28;20064;-64
2022/08/04 08:01:33;;;;;;;14.65;5.20;;;24.70;99.90;;;;;;5040803;28;19952;-63
2022/08/04 08:03:59;;;;;;;15.95;5.50;;;24.80;99.90;;;;;;5053040;28;20041;-63
2022/08/04 08:06:28;;;;;;;11.35;4.88;;;25.00;99.90;;;;;;5069393;28;20111;-64
2022/08/04 08:08:57;;;;;;;9.02;4.85;;;25.00;99.90;;;;;;5050203;28;20042;-63
2022/08/04 08:11:23;;;;;;;11.60;5.00;;;25.10;99.90;;;;;;5056211;28;20450;-63
2022/08/04 08:13:49;;;;;;;16.48;4.72;;;25.10;99.90;;;;;;5073564;28;20028;-64
2022/08/04 08:16:14;;;;;;;12.38;4.47;;;25.20;99.90;;;;;;5053878;28;20536;-63
2022/08/04 08:18:40;;;;;;;9.15;4.07;;;25.20;99.90;;;;;;5057527;28;20040;-63
2022/08/04 08:21:06;;;;;;;10.65;4.60;;;25.30;99.90;;;;;;5059722;28;20073;-63
2022/08/04 08:23:34;;;;;;;10.88;4.60;;;25.30;99.90;;;;;;5072581;28;20036;-63
2022/08/04 08:26:00;;;;;;;12.15;4.57;;;25.30;99.90;;;;;;5057615;28;20040;-63
2022/08/04 08:28:26;;;;;;;9.52;4.47;;;25.40;99.90;;;;;;5069645;28;20438;-63
2022/08/04 08:30:52;;;;;;;8.77;4.45;;;25.50;99.90;;;;;;5071466;28;20506;-63
2022/08/04 08:33:20;;;;;;;10.75;4.57;;;25.60;99.90;;;;;;5072275;28;20028;-64
2022/08/04 08:36:02;;;;;;;10.25;4.20;;;25.80;99.90;;;;;;5049365;28;20041;-63
2022/08/04 08:38:39;;;;;;;12.63;4.57;;;25.90;99.90;;;;;;5068327;28;20044;-63
2022/08/04 08:41:45;;;;;;;10.38;4.20;;;26.10;99.90;;;;;;5031261;28;20484;-63
2022/08/04 08:44:55;;;;;;;14.10;4.68;;;26.30;99.90;;;;;;5045815;28;20048;-63
2022/08/04 08:48:05;;;;;;;10.32;4.85;;;26.50;99.90;;;;;;4985352;28;20097;-62
2022/08/04 08:51:08;;;;;;;12.17;4.47;;;26.60;99.90;;;;;;4989800;28;20085;-62
2022/08/04 08:53:43;;;;;;;15.10;4.97;;;26.70;99.90;;;;;;5059869;28;20083;-63
2022/08/04 08:56:38;;;;;;;11.57;4.40;;;26.80;99.90;;;;;;5058966;28;20048;-62
2022/08/04 08:59:41;;;;;;;10.20;4.50;;;26.80;99.90;;;;;;5035438;28;20037;-63
2022/08/04 09:02:31;;;;;;;14.27;4.00;;;26.80;99.90;;;;;;5056986;28;20036;-63
2022/08/04 09:05:15;;;;;;;10.38;4.47;;;26.80;99.90;;;;;;5072578;28;20102;-63
2022/08/04 09:07:56;;;;;;;7.57;3.90;;;26.80;99.90;;;;;;5064123;28;20491;-63
2022/08/04 09:10:47;;;;;;;11.30;4.90;;;26.80;99.90;;;;;;5061542;28;20039;-63
2022/08/04 09:13:26;;;;;;;8.18;3.95;;;26.90;99.90;;;;;;5072370;28;20501;-63
2022/08/04 09:16:13;;;;;;;11.45;4.40;;;27.00;99.90;;;;;;5053857;28;20507;-63
2022/08/04 09:18:44;;;;;;;9.73;4.47;;;27.00;99.70;;;;;;5067229;28;20037;-63
2022/08/04 09:21:25;;;;;;;10.10;4.47;;;27.00;99.90;;;;;;5068608;28;20036;-63
2022/08/04 09:24:09;;;;;;;12.52;4.53;;;27.10;99.90;;;;;;5058026;28;20610;-62
2022/08/04 09:26:40;;;;;;;10.65;4.20;;;27.20;99.90;;;;;;5071688;28;20032;-62
2022/08/04 09:29:09;;;;;;;;;;;27.30;99.90;;;;;;5071953;28;20037;-62
2022/08/04 09:31:47;;;;;;;12.02;4.60;;;27.50;99.90;;;;;;5060424;28;19971;-62
2022/08/04 09:34:52;;;;;;;14.27;4.43;;;27.60;99.90;;;;;;5053368;28;20072;-62
2022/08/04 09:37:39;;;;;;;10.80;4.40;;;27.70;99.90;;;;;;5000000;28;20126;-62
2022/08/04 09:40:33;;;;;;;7.95;4.68;;;27.80;99.40;;;;;;5067642;28;20379;-63
2022/08/04 09:43:08;;;;;;;10.32;4.90;;;27.90;99.30;;;;;;5053512;28;20070;-62
2022/08/04 09:45:47;;;;;;;10.60;4.25;;;28.10;99.90;;;;;;5064071;28;20097;-62
2022/08/04 09:48:21;;;;;;;13.20;4.43;;;28.20;99.40;;;;;;5032812;28;20042;-63
2022/08/04 09:50:53;;;;;;;10.82;4.88;;;28.40;99.20;;;;;;5037502;28;20056;-63
2022/08/04 09:53:50;;;;;;;12.40;4.72;;;28.60;99.40;;;;;;5071728;28;20029;-63
2022/08/04 09:56:37;;;;;;;9.45;4.70;;;28.60;97.50;;;;;;5072295;28;20052;-63
2022/08/04 09:59:24;;;;;;;14.13;5.35;;;28.60;97.80;;;;;;5059181;28;20522;-63
2022/08/04 10:01:55;;;;;;;15.93;5.30;;;28.60;97.40;;;;;;5067891;28;20051;-63
2022/08/04 10:04:24;;;;;;;10.75;4.90;;;28.70;99.20;;;;;;5069668;28;20115;-63
2022/08/04 10:07:32;;;;;;;9.82;5.00;;;28.60;99.10;;;;;;5059801;28;20079;-64
2022/08/04 10:10:45;;;;;;;12.02;5.38;;;28.60;98.90;;;;;;5070385;28;20049;-64
2022/08/04 10:13:29;;;;;;;11.00;4.93;;;28.70;98.30;;;;;;4989871;28;20536;-64
2022/08/04 10:16:13;;;;;;;16.83;5.82;;;28.70;99.80;;;;;;5047859;28;20045;-64
2022/08/04 10:18:49;;;;;;;10.13;4.93;;;28.80;98.10;;;;;;5068081;28;20036;-63
2022/08/04 10:21:36;;;;;;;13.18;5.72;;;28.80;99.00;;;;;;5066626;28;20029;-62
2022/08/04 10:24:28;;;;;;;12.70;5.47;;;28.70;99.00;;;;;;5051331;28;20567;-62
2022/08/04 10:27:06;;;;;;;14.45;5.85;;;28.60;99.80;;;;;;5070961;28;20483;-63
2022/08/04 10:29:43;;;;;;;12.73;5.38;;;28.40;98.90;;;;;;5058752;28;20045;-63
2022/08/04 10:32:33;;;;;;;10.93;5.10;;;28.20;99.60;;;;;;5041068;28;20064;-63
2022/08/04 10:35:08;;;;;;;15.43;5.72;;;28.20;99.40;;;;;;5070944;28;20111;-63
2022/08/04 10:38:12;;;;;;;14.00;5.70;;;28.10;99.70;;;;;;5071208;28;20395;-63
2022/08/04 10:40:55;;;;;;;15.40;5.78;;;28.00;99.80;;;;;;5048072;28;20461;-64
2022/08/04 10:43:47;;;;;;;11.70;5.22;;;27.90;99.90;;;;;;5059042;28;20068;-62
2022/08/04 10:46:25;;;;;;;11.25;4.90;;;27.80;99.90;;;;;;5071044;28;20115;-63
2022/08/04 10:49:02;;;;;;;10.30;4.93;;;27.80;99.90;;;;;;5053329;28;20037;-64
2022/08/04 10:52:01;;;;;;;11.38;5.65;;;27.90;99.90;;;;;;5070492;28;20028;-63
2022/08/04 10:54:48;;;;;;;10.57;5.13;;;28.00;99.90;;;;;;5067855;28;20407;-63
2022/08/04 10:57:27;;;;;;;13.05;4.57;;;28.00;99.90;;;;;;5057559;28;20516;-64
2022/08/04 11:00:13;;;;;;;12.98;4.18;;;28.10;99.50;;;;;;5070302;28;20514;-64
2022/08/04 11:02:44;;;;;;;10.70;4.20;;;28.10;99.80;;;;;;5070738;28;20063;-63
2022/08/04 11:05:20;;;;;;;9.05;3.53;;;28.00;99.20;;;;;;5059039;28;20120;-63
2022/08/04 11:07:50;;;;;;;8.93;3.50;;;28.00;97.90;;;;;;5056935;28;20051;-63
2022/08/04 11:10:20;;;;;;;8.43;3.50;;;27.90;98.70;;;;;;5071024;28;20052;-63
2022/08/04 11:12:52;;;;;;;8.90;3.10;;;27.80;98.60;;;;;;5055217;28;20487;-63
2022/08/04 11:15:24;;;;;;;8.52;3.35;;;27.80;98.70;;;;;;5062403;28;20044;-63
2022/08/04 11:18:17;;;;;;;7.63;3.33;;;27.90;97.90;;;;;;5057230;28;20037;-63
2022/08/04 11:21:09;;;;;;;12.25;3.13;;;27.90;98.30;;;;;;5133303;22;20106;-66
2022/08/04 11:23:41;;;;;;;6.68;3.10;;;28.00;98.10;;;;;;5051864;28;20388;-65
2022/08/04 11:26:20;;;;;;;3.35;2.50;;;28.00;98.70;;;;;;5063014;28;20044;-64
2022/08/04 11:29:04;;;;;;;6.43;2.92;;;28.10;98.60;;;;;;5043658;28;20045;-65
2022/08/04 11:31:39;;;;;;;7.13;3.25;;;28.10;98.50;;;;;;5049999;28;20090;-65
2022/08/04 11:34:22;;;;;;;6.13;3.22;;;28.00;98.80;;;;;;5064651;28;20116;-65
2022/08/04 11:37:23;;;;;;;6.63;3.03;;;27.90;99.00;;;;;;5064732;28;20036;-66
2022/08/04 11:40:22;;;;;;;11.30;3.58;;;27.90;99.70;;;;;;5050844;28;20582;-66
2022/08/04 11:42:55;;;;;;;6.32;2.45;;;27.90;99.20;;;;;;5011201;28;20045;-66
2022/08/04 11:45:37;;;;;;;8.95;2.70;;;27.90;98.70;;;;;;5052242;28;20041;-66
2022/08/04 11:48:21;;;;;;;8.98;2.60;;;27.80;98.90;;;;;;5042927;28;20067;-66
2022/08/04 11:50:51;;;;;;;8.07;2.60;;;27.70;98.60;;;;;;5055176;28;20041;-65
2022/08/04 11:53:21;;;;;;;10.70;2.60;;;27.70;98.80;;;;;;5054348;28;20090;-65
2022/08/04 11:55:51;;;;;;;10.55;2.92;;;27.60;98.60;;;;;;5055393;28;20045;-65
2022/08/04 11:58:19;;;;;;;5.18;2.28;;;27.60;98.80;;;;;;5056860;28;20128;-66
2022/08/04 12:01:00;;;;;;;11.85;2.70;;;27.50;99.00;;;;;;5059077;28;20095;-67
2022/08/04 12:03:36;;;;;;;4.35;2.30;;;27.30;98.50;;;;;;5052360;28;20037;-65
2022/08/04 12:06:16;;;;;;;8.30;2.75;;;27.10;98.60;;;;;;5055492;28;20442;-65
2022/08/04 12:08:53;;;;;;;14.13;2.90;;;26.90;99.00;;;;;;5054149;28;20033;-65
2022/08/04 12:11:40;;;;;;;6.22;2.58;;;26.80;98.70;;;;;;5057049;28;20013;-65
2022/08/04 12:14:46;;;;;;;9.77;2.53;;;26.60;98.60;;;;;;5056458;28;20065;-65
2022/08/04 12:17:20;;;;;;;5.57;2.53;;;26.50;99.50;;;;;;5061644;28;20041;-65
2022/08/04 12:20:00;;;;;;;4.78;2.20;;;26.30;99.90;;;;;;5064934;28;20041;-65
2022/08/04 12:22:31;;;;;;;6.72;2.55;;;26.10;99.90;;;;;;5056792;28;20041;-65
2022/08/04 12:25:05;;;;;;;;;;;26.00;99.90;;;;;;5053919;28;20045;-65
2022/08/04 12:27:34;;;;;;;6.03;2.60;;;25.80;99.90;;;;;;5051641;28;19927;-65
2022/08/04 12:30:02;;;;;;;4.90;2.35;;;25.70;99.90;;;;;;5056828;28;20037;-65
2022/08/04 12:32:37;;;;;;;4.13;2.20;;;25.60;99.90;;;;;;5053102;28;20063;-65
2022/08/04 12:35:26;;;;;;;4.72;2.30;;;25.40;99.90;;;;;;5052554;28;20051;-65
2022/08/04 12:38:07;;;;;;;7.57;2.50;;;25.30;99.90;;;;;;5068201;28;20039;-65
2022/08/04 12:40:48;;;;;;;4.72;2.20;;;25.10;99.90;;;;;;5068924;28;20056;-65
2022/08/04 12:43:23;;;;;;;4.55;2.42;;;24.90;99.90;;;;;;5070723;28;20040;-65
2022/08/04 12:45:56;;;;;;;4.15;2.13;;;24.60;99.90;;;;;;5058058;28;20037;-66
2022/08/04 12:48:24;;;;;;;2.95;2.03;;;24.40;99.90;;;;;;5053618;28;20029;-66
2022/08/04 12:50:52;;;;;;;4.45;2.10;;;24.30;99.90;;;;;;5053023;28;20033;-65
2022/08/04 12:53:22;;;;;;;6.50;2.78;;;24.10;99.90;;;;;;5038906;28;20395;-66
2022/08/04 12:55:50;;;;;;;7.03;2.78;;;24.10;99.90;;;;;;5052765;28;20495;-66
2022/08/04 12:58:20;;;;;;;10.13;2.92;;;24.10;99.90;;;;;;5035130;28;20045;-66
2022/08/04 13:00:52;;;;;;;3.77;2.40;;;24.20;99.90;;;;;;5051255;28;20044;-66
2022/08/04 13:03:20;;;;;;;8.05;2.50;;;24.30;99.90;;;;;;5052600;28;20126;-66
2022/08/04 13:05:47;;;;;;;6.03;2.47;;;24.40;99.90;;;;;;5039316;28;20123;-65
2022/08/04 13:08:14;;;;;;;5.93;2.40;;;24.60;99.90;;;;;;5051078;28;20064;-65
2022/08/04 13:10:45;;;;;;;5.53;2.78;;;24.80;99.90;;;;;;5056011;28;20082;-66
2022/08/04 13:13:19;;;;;;;7.40;2.45;;;24.90;99.90;;;;;;5052545;28;20037;-66
2022/08/04 13:16:00;;;;;;;3.72;2.40;;;25.20;99.90;;;;;;5053827;28;20452;-66
2022/08/04 13:18:27;;;;;;;;;;;25.70;99.90;;;;;;5064836;28;20037;-65
2022/08/04 13:20:53;;;;;;;5.65;2.60;;;26.20;99.90;;;;;;5054969;28;19920;-66
2022/08/04 13:23:20;;;;;;;4.57;2.30;;;26.40;99.90;;;;;;5056731;28;20037;-65
2022/08/04 13:25:49;;;;;;;2.67;1.90;;;26.90;99.90;;;;;;5045656;28;20049;-66
2022/08/04 13:28:26;;;;;;;3.78;2.30;;;27.30;99.90;;;;;;5052086;28;20037;-65
2022/08/04 13:31:00;;;;;;;4.88;2.25;;;27.60;99.90;;;;;;5051802;28;20041;-65
2022/08/04 13:33:32;;;;;;;2.38;1.88;;;27.90;99.90;;;;;;5063312;28;20032;-65
2022/08/04 13:35:59;;;;;;;4.07;2.40;;;27.90;99.90;;;;;;5055673;28;20052;-65